Time;durP1;ratioP1;P1;durP2;ratioP2;P2;SDS_P1;SDS_P2;PMS_P1;PMS_P2;Temp;Humidity;BMP_temperature;BMP_pressure;BME280_temperature;BME280_humidity;BME280_pressure;Samples;Min_cycle;Max_cycle;Signal;HPM_P1;HPM_P2
2023/10/27 00:02:22;;;;;;;55.03;32.17;;;;;;;;;;4936003;29;20031;-50
2023/10/27 00:04:49;;;;;;;58.38;33.17;;;;;;;;;;4952508;29;20089;-54
2023/10/27 00:07:15;;;;;;;51.17;30.57;;;;;;;;;;4949275;29;20406;-51
2023/10/27 00:09:41;;;;;;;51.65;30.20;;;;;;;;;;4939969;29;20106;-52
2023/10/27 00:12:08;;;;;;;44.90;27.95;;;;;;;;;;4938000;29;20027;-50
2023/10/27 00:14:34;;;;;;;44.92;28.90;;;;;;;;;;4951852;29;20028;-47
2023/10/27 00:17:00;;;;;;;50.30;30.73;;;;;;;;;;4937296;29;20020;-47
2023/10/27 00:19:26;;;;;;;42.63;27.95;;;;;;;;;;4934011;29;20388;-51
2023/10/27 00:21:53;;;;;;;39.85;26.23;;;;;;;;;;4916823;29;20042;-47
2023/10/27 00:24:19;;;;;;;42.42;26.58;;;;;;;;;;4933004;29;20035;-52
2023/10/27 00:26:45;;;;;;;36.40;26.42;;;;;;;;;;4938157;29;20032;-54
2023/10/27 00:29:11;;;;;;;38.83;24.60;;;;;;;;;;4901296;29;20038;-50
2023/10/27 00:31:37;;;;;;;35.90;23.63;;;;;;;;;;4933877;29;20039;-48
2023/10/27 00:34:04;;;;;;;34.57;23.17;;;;;;;;;;4921444;29;20462;-49
2023/10/27 00:36:30;;;;;;;36.38;23.48;;;;;;;;;;4916506;29;20051;-49
2023/10/27 00:38:56;;;;;;;31.27;22.43;;;;;;;;;;4951875;29;20059;-48
2023/10/27 00:41:24;;;;;;;31.67;22.13;;;;;;;;;;4925398;29;20036;-48
2023/10/27 00:43:50;;;;;;;33.08;23.48;;;;;;;;;;4949088;29;20039;-50
2023/10/27 00:46:16;;;;;;;32.40;21.30;;;;;;;;;;4930160;29;20505;-48
2023/10/27 00:48:43;;;;;;;27.25;21.05;;;;;;;;;;4924341;29;20196;-47
2023/10/27 00:51:09;;;;;;;32.28;21.38;;;;;;;;;;4927198;29;20036;-51
2023/10/27 00:53:36;;;;;;;27.65;20.60;;;;;;;;;;4937251;29;20032;-52
2023/10/27 00:56:04;;;;;;;29.95;20.92;;;;;;;;;;4938320;29;20126;-49
2023/10/27 00:58:31;;;;;;;27.90;20.02;;;;;;;;;;4955297;29;20090;-51
2023/10/27 01:01:01;;;;;;;28.15;20.92;;;;;;;;;;4914248;29;20122;-51
2023/10/27 01:03:27;;;;;;;26.83;20.20;;;;;;;;;;4936975;29;20036;-49
2023/10/27 01:05:55;;;;;;;31.20;21.20;;;;;;;;;;4919800;29;20438;-52
2023/10/27 01:08:22;;;;;;;25.90;19.83;;;;;;;;;;4943841;29;20114;-47
2023/10/27 01:10:48;;;;;;;25.73;19.98;;;;;;;;;;4936923;29;20031;-53
2023/10/27 01:13:14;;;;;;;27.40;19.07;;;;;;;;;;4936859;29;20035;-54
2023/10/27 01:15:41;;;;;;;26.15;19.27;;;;;;;;;;4919370;29;20486;-50
2023/10/27 01:18:07;;;;;;;25.50;19.93;;;;;;;;;;4935444;29;20062;-48
2023/10/27 01:20:33;;;;;;;27.23;19.35;;;;;;;;;;4934841;29;20405;-47
2023/10/27 01:23:02;;;;;;;29.23;19.33;;;;;;;;;;4926854;29;20116;-48
2023/10/27 01:25:28;;;;;;;26.73;19.67;;;;;;;;;;4936587;29;20031;-51
2023/10/27 01:27:56;;;;;;;25.17;19.13;;;;;;;;;;4937308;29;20027;-49
2023/10/27 01:30:22;;;;;;;26.13;19.55;;;;;;;;;;4933076;29;20042;-52
2023/10/27 01:32:49;;;;;;;24.17;18.23;;;;;;;;;;4920438;29;20448;-48
2023/10/27 01:35:15;;;;;;;23.30;18.20;;;;;;;;;;4919434;29;20130;-52
2023/10/27 01:37:41;;;;;;;23.65;16.70;;;;;;;;;;4944162;29;20079;-54
2023/10/27 01:40:08;;;;;;;21.35;16.67;;;;;;;;;;4919744;29;20074;-48
2023/10/27 01:42:35;;;;;;;22.55;17.25;;;;;;;;;;4936092;29;20115;-49
2023/10/27 01:45:05;;;;;;;33.40;17.67;;;;;;;;;;4935717;29;20517;-51
2023/10/27 01:47:31;;;;;;;22.00;16.73;;;;;;;;;;4932442;29;20023;-56
2023/10/27 01:49:58;;;;;;;20.90;16.02;;;;;;;;;;4905711;29;20043;-48
2023/10/27 01:52:24;;;;;;;21.40;16.40;;;;;;;;;;4929497;29;20479;-51
2023/10/27 01:54:50;;;;;;;21.88;17.20;;;;;;;;;;4934335;29;20403;-47
2023/10/27 01:57:17;;;;;;;21.35;16.58;;;;;;;;;;4950078;29;20029;-52
2023/10/27 01:59:43;;;;;;;19.67;16.55;;;;;;;;;;4937834;29;20046;-51
2023/10/27 02:02:13;;;;;;;25.20;16.52;;;;;;;;;;4937838;29;20058;-47
2023/10/27 02:04:39;;;;;;;20.42;16.35;;;;;;;;;;4937731;29;20020;-47
2023/10/27 02:07:06;;;;;;;22.13;16.17;;;;;;;;;;4954934;29;20410;-47
2023/10/27 02:09:32;;;;;;;19.40;15.02;;;;;;;;;;4940009;29;20350;-48
2023/10/27 02:11:58;;;;;;;19.40;15.97;;;;;;;;;;4918483;29;20031;-48
2023/10/27 02:14:30;;;;;;;20.97;16.03;;;;;;;;;;4918800;29;20082;-47
2023/10/27 02:16:57;;;;;;;19.95;15.57;;;;;;;;;;4918397;29;20035;-47
2023/10/27 02:19:23;;;;;;;22.00;16.63;;;;;;;;;;4935613;29;20034;-52
2023/10/27 02:21:49;;;;;;;23.40;15.48;;;;;;;;;;4918918;29;20325;-51
2023/10/27 02:24:16;;;;;;;;;;;;;;;;;;4919912;29;20043;-49
2023/10/27 02:26:42;;;;;;;19.10;15.50;;;;;;;;;;4937566;29;20001;-48
2023/10/27 02:29:08;;;;;;;20.85;15.05;;;;;;;;;;4918904;29;20497;-47
2023/10/27 02:31:35;;;;;;;18.50;15.43;;;;;;;;;;4937490;29;20070;-48
2023/10/27 02:34:01;;;;;;;23.02;16.90;;;;;;;;;;4935731;29;20031;-54
2023/10/27 02:36:27;;;;;;;17.83;14.40;;;;;;;;;;4935405;29;20031;-48
2023/10/27 02:38:53;;;;;;;19.20;15.30;;;;;;;;;;4916556;29;20029;-52
2023/10/27 02:41:19;;;;;;;24.30;17.58;;;;;;;;;;4937115;29;20125;-53
2023/10/27 02:43:46;;;;;;;24.60;18.17;;;;;;;;;;4935255;29;20054;-48
2023/10/27 02:46:13;;;;;;;22.70;17.33;;;;;;;;;;4950442;29;20038;-48
2023/10/27 02:48:42;;;;;;;21.90;17.63;;;;;;;;;;4934778;29;20282;-48
2023/10/27 02:51:09;;;;;;;27.95;18.13;;;;;;;;;;4923096;28;20129;-47
2023/10/27 02:53:36;;;;;;;21.85;17.25;;;;;;;;;;4941428;29;20172;-54
2023/10/27 02:56:06;;;;;;;23.33;19.27;;;;;;;;;;4944827;29;20028;-53
2023/10/27 02:58:32;;;;;;;24.40;19.08;;;;;;;;;;4919092;29;20472;-51
2023/10/27 03:00:58;;;;;;;27.70;17.48;;;;;;;;;;4918943;29;20035;-49
2023/10/27 03:03:27;;;;;;;22.33;19.00;;;;;;;;;;4935828;29;20023;-48
2023/10/27 03:05:53;;;;;;;21.95;17.35;;;;;;;;;;4923641;29;20454;-47
2023/10/27 03:08:19;;;;;;;26.70;18.92;;;;;;;;;;4915882;29;20079;-47
2023/10/27 03:10:46;;;;;;;23.83;18.40;;;;;;;;;;4934831;29;20031;-47
2023/10/27 03:13:12;;;;;;;22.33;18.60;;;;;;;;;;4927629;29;20245;-47
2023/10/27 03:15:38;;;;;;;23.17;18.30;;;;;;;;;;4918335;29;20038;-48
2023/10/27 03:18:04;;;;;;;29.70;19.85;;;;;;;;;;4916847;29;20036;-51
2023/10/27 03:20:31;;;;;;;27.20;20.03;;;;;;;;;;4940452;29;20031;-50
2023/10/27 03:22:57;;;;;;;27.73;19.93;;;;;;;;;;4953801;29;20046;-51
2023/10/27 03:25:23;;;;;;;24.53;19.73;;;;;;;;;;4932500;29;20494;-49
2023/10/27 03:27:49;;;;;;;26.33;19.80;;;;;;;;;;4952400;29;20035;-50
2023/10/27 03:30:16;;;;;;;27.08;21.17;;;;;;;;;;4934747;29;20486;-48
2023/10/27 03:32:42;;;;;;;28.80;21.27;;;;;;;;;;4934456;29;20062;-53
2023/10/27 03:35:09;;;;;;;28.23;21.50;;;;;;;;;;4935381;29;20066;-53
2023/10/27 03:37:35;;;;;;;28.10;20.13;;;;;;;;;;4946783;29;20514;-51
2023/10/27 03:40:03;;;;;;;35.47;24.43;;;;;;;;;;4917528;29;20483;-50
2023/10/27 03:42:30;;;;;;;31.65;24.65;;;;;;;;;;4935463;29;20107;-47
2023/10/27 03:44:56;;;;;;;33.15;23.77;;;;;;;;;;4948596;29;20020;-47
2023/10/27 03:47:22;;;;;;;35.30;25.37;;;;;;;;;;4935866;29;20063;-47
2023/10/27 03:49:48;;;;;;;28.98;19.08;;;;;;;;;;4939854;29;20028;-45
2023/10/27 03:52:16;;;;;;;40.85;25.33;;;;;;;;;;4926247;29;20027;-46
2023/10/27 03:54:42;;;;;;;52.00;30.20;;;;;;;;;;4937040;29;20051;-53
2023/10/27 03:57:08;;;;;;;52.45;31.00;;;;;;;;;;4934083;29;20035;-51
2023/10/27 03:59:34;;;;;;;61.38;34.10;;;;;;;;;;4934286;29;20028;-47
2023/10/27 04:02:00;;;;;;;53.08;32.45;;;;;;;;;;4933360;29;20035;-50
2023/10/27 04:04:26;;;;;;;61.03;32.93;;;;;;;;;;4933713;29;20035;-50
2023/10/27 04:06:54;;;;;;;67.10;33.33;;;;;;;;;;4934064;29;20043;-49
2023/10/27 04:09:23;;;;;;;54.70;31.75;;;;;;;;;;4934173;29;20046;-52
2023/10/27 04:11:49;;;;;;;48.13;27.83;;;;;;;;;;4916985;29;20032;-52
2023/10/27 04:14:15;;;;;;;40.45;24.58;;;;;;;;;;4934223;29;20020;-49
2023/10/27 04:16:42;;;;;;;39.58;24.13;;;;;;;;;;4934219;29;20032;-50
2023/10/27 04:19:08;;;;;;;42.75;23.63;;;;;;;;;;4937881;29;20476;-49
2023/10/27 04:21:34;;;;;;;39.58;23.48;;;;;;;;;;4905130;29;20463;-50
2023/10/27 04:24:00;;;;;;;35.83;22.57;;;;;;;;;;4920786;29;20036;-50
2023/10/27 04:26:27;;;;;;;37.88;23.17;;;;;;;;;;4937719;29;20032;-48
2023/10/27 04:28:53;;;;;;;41.88;23.83;;;;;;;;;;4937644;29;20119;-51
2023/10/27 04:31:20;;;;;;;41.93;24.57;;;;;;;;;;4937603;29;20373;-53
2023/10/27 04:33:48;;;;;;;;;;;;;;;;;;4920799;29;20479;-48
2023/10/27 04:36:15;;;;;;;38.20;24.02;;;;;;;;;;4937219;29;19942;-54
2023/10/27 04:38:42;;;;;;;;;;;;;;;;;;4938010;29;20498;-48
2023/10/27 04:41:09;;;;;;;36.58;22.55;;;;;;;;;;4937585;29;20001;-49
2023/10/27 04:43:35;;;;;;;;;;;;;;;;;;4937979;29;20034;-50
2023/10/27 04:46:02;;;;;;;36.50;23.35;;;;;;;;;;4937615;29;19907;-48
2023/10/27 04:48:28;;;;;;;38.40;23.20;;;;;;;;;;4920352;29;20055;-50
2023/10/27 04:51:03;;;;;;;41.88;23.80;;;;;;;;;;4937315;29;20789;-49
2023/10/27 04:53:33;;;;;;;36.25;23.27;;;;;;;;;;4937505;29;20028;-50
2023/10/27 04:55:59;;;;;;;38.70;24.17;;;;;;;;;;4937215;29;20483;-48
2023/10/27 04:58:25;;;;;;;41.97;22.70;;;;;;;;;;4937556;29;20063;-50
2023/10/27 05:00:51;;;;;;;35.50;22.47;;;;;;;;;;4937379;29;20036;-51
2023/10/27 05:03:18;;;;;;;37.63;21.87;;;;;;;;;;4937158;29;20082;-48
2023/10/27 05:05:44;;;;;;;38.78;22.92;;;;;;;;;;4937169;29;20422;-48
2023/10/27 05:08:10;;;;;;;37.60;23.23;;;;;;;;;;4936943;29;20126;-53
2023/10/27 05:10:40;;;;;;;36.70;20.97;;;;;;;;;;4937177;29;20155;-54
2023/10/27 05:13:06;;;;;;;37.15;21.42;;;;;;;;;;4937035;29;20032;-49
2023/10/27 05:15:33;;;;;;;38.67;21.45;;;;;;;;;;4936867;29;20505;-49
2023/10/27 05:18:04;;;;;;;41.63;23.43;;;;;;;;;;4936709;29;20028;-50
2023/10/27 05:20:39;;;;;;;35.95;22.33;;;;;;;;;;4936950;29;20106;-52
2023/10/27 05:23:05;;;;;;;41.78;22.92;;;;;;;;;;4936922;29;20043;-49
2023/10/27 05:25:31;;;;;;;37.33;23.33;;;;;;;;;;4936755;29;20439;-51
2023/10/27 05:27:57;;;;;;;39.90;22.93;;;;;;;;;;4919261;29;20553;-47
2023/10/27 05:30:24;;;;;;;45.42;24.50;;;;;;;;;;4936738;29;20031;-49
2023/10/27 05:32:50;;;;;;;57.70;27.67;;;;;;;;;;4936666;29;20072;-50
2023/10/27 05:35:16;;;;;;;53.47;27.45;;;;;;;;;;4936524;29;20052;-51
2023/10/27 05:37:42;;;;;;;57.85;30.35;;;;;;;;;;4936495;29;20023;-49
2023/10/27 05:40:08;;;;;;;48.75;27.73;;;;;;;;;;4919714;29;20039;-51
2023/10/27 05:42:34;;;;;;;55.10;28.85;;;;;;;;;;4936519;29;20039;-48
2023/10/27 05:45:01;;;;;;;54.88;28.27;;;;;;;;;;4936360;29;20039;-51
2023/10/27 05:47:27;;;;;;;58.13;29.58;;;;;;;;;;4936058;29;20458;-50
2023/10/27 05:49:54;;;;;;;60.83;30.02;;;;;;;;;;4936309;29;20024;-52
2023/10/27 05:52:21;;;;;;;62.30;30.40;;;;;;;;;;4919194;29;20058;-52
2023/10/27 05:54:47;;;;;;;62.75;29.50;;;;;;;;;;4936174;29;20031;-49
2023/10/27 05:57:14;;;;;;;50.72;27.42;;;;;;;;;;4936008;29;20103;-49
2023/10/27 05:59:41;;;;;;;50.80;29.10;;;;;;;;;;4919151;29;20039;-49
2023/10/27 06:02:07;;;;;;;61.70;30.40;;;;;;;;;;4919091;29;20657;-49
2023/10/27 06:04:36;;;;;;;55.80;28.42;;;;;;;;;;4936032;29;20036;-49
2023/10/27 06:07:02;;;;;;;56.30;29.63;;;;;;;;;;4918875;29;20490;-50
2023/10/27 06:09:30;;;;;;;;;;;;;;;;;;4936327;29;20040;-52
2023/10/27 06:11:57;;;;;;;57.95;28.65;;;;;;;;;;4936058;29;20455;-49
2023/10/27 06:14:23;;;;;;;58.53;28.83;;;;;;;;;;4936022;29;20032;-50
2023/10/27 06:16:49;;;;;;;56.67;29.10;;;;;;;;;;4935745;29;20085;-49
2023/10/27 06:19:15;;;;;;;55.70;28.67;;;;;;;;;;4935832;29;20039;-48
2023/10/27 06:21:41;;;;;;;55.47;29.63;;;;;;;;;;4902993;29;20035;-49
2023/10/27 06:24:10;;;;;;;51.75;28.40;;;;;;;;;;4935730;29;20122;-49
2023/10/27 06:26:36;;;;;;;45.35;26.92;;;;;;;;;;4935435;29;20035;-49
2023/10/27 06:29:03;;;;;;;47.45;27.63;;;;;;;;;;4918386;29;20043;-47
2023/10/27 06:31:29;;;;;;;43.38;25.17;;;;;;;;;;4935602;29;20032;-50
2023/10/27 06:33:56;;;;;;;51.47;26.92;;;;;;;;;;4935745;29;20028;-46
2023/10/27 06:36:22;;;;;;;46.05;26.35;;;;;;;;;;4935154;29;20028;-45
2023/10/27 06:38:48;;;;;;;33.03;22.73;;;;;;;;;;4935448;29;20040;-47
2023/10/27 06:41:14;;;;;;;37.47;21.98;;;;;;;;;;4937964;28;20388;-47
2023/10/27 06:43:40;;;;;;;32.33;22.93;;;;;;;;;;4953205;28;20118;-52
2023/10/27 06:46:07;;;;;;;26.20;19.73;;;;;;;;;;4906788;29;20294;-51
2023/10/27 06:48:33;;;;;;;29.70;18.65;;;;;;;;;;4918340;29;20042;-54
2023/10/27 06:50:59;;;;;;;24.95;19.25;;;;;;;;;;4935290;29;20031;-47
2023/10/27 06:53:25;;;;;;;29.02;19.63;;;;;;;;;;4935156;29;20473;-59
2023/10/27 06:55:51;;;;;;;27.30;19.48;;;;;;;;;;4934967;29;20118;-58
2023/10/27 06:58:18;;;;;;;28.47;18.87;;;;;;;;;;4934944;29;20027;-58
2023/10/27 07:00:44;;;;;;;27.80;20.25;;;;;;;;;;4935119;29;20031;-47
2023/10/27 07:03:10;;;;;;;23.93;18.97;;;;;;;;;;4935055;29;20605;-46
2023/10/27 07:05:36;;;;;;;26.13;19.85;;;;;;;;;;4934939;29;20040;-46
2023/10/27 07:08:02;;;;;;;32.07;19.90;;;;;;;;;;4934688;29;20094;-48
2023/10/27 07:10:28;;;;;;;30.25;18.63;;;;;;;;;;4934976;29;20027;-48
2023/10/27 07:12:55;;;;;;;24.23;19.23;;;;;;;;;;4941893;29;20032;-47
2023/10/27 07:15:21;;;;;;;29.73;19.40;;;;;;;;;;4936758;29;20027;-49
2023/10/27 07:17:47;;;;;;;28.98;20.85;;;;;;;;;;4936706;29;20035;-49
2023/10/27 07:20:13;;;;;;;24.30;20.40;;;;;;;;;;4953952;29;20058;-48
2023/10/27 07:22:39;;;;;;;24.30;19.50;;;;;;;;;;4953954;29;20027;-47
2023/10/27 07:25:06;;;;;;;30.97;22.00;;;;;;;;;;4953783;29;20039;-50
2023/10/27 07:27:32;;;;;;;26.60;20.77;;;;;;;;;;4953426;29;20499;-54
2023/10/27 07:29:58;;;;;;;30.63;20.92;;;;;;;;;;4953881;29;20067;-52
2023/10/27 07:32:24;;;;;;;34.35;23.75;;;;;;;;;;4953707;29;20031;-53
2023/10/27 07:34:51;;;;;;;31.57;22.13;;;;;;;;;;4953635;29;20039;-53
2023/10/27 07:37:19;;;;;;;32.33;24.27;;;;;;;;;;4953621;29;20090;-47
2023/10/27 07:39:46;;;;;;;30.20;23.33;;;;;;;;;;4953626;29;20047;-49
2023/10/27 07:42:13;;;;;;;37.55;25.73;;;;;;;;;;4936248;29;20498;-48
2023/10/27 07:44:40;;;;;;;43.60;25.27;;;;;;;;;;4953605;29;20039;-50
2023/10/27 07:47:06;;;;;;;33.37;25.50;;;;;;;;;;4953518;29;20039;-51
2023/10/27 07:49:32;;;;;;;34.90;26.27;;;;;;;;;;4953606;29;20338;-48
2023/10/27 07:51:59;;;;;;;32.13;26.38;;;;;;;;;;4954365;28;20114;-47
2023/10/27 07:54:25;;;;;;;32.88;24.00;;;;;;;;;;4957592;29;20146;-47
2023/10/27 07:56:51;;;;;;;32.75;23.35;;;;;;;;;;4956974;29;20049;-48
2023/10/27 07:59:17;;;;;;;32.17;23.60;;;;;;;;;;4940236;29;20486;-50
2023/10/27 08:01:43;;;;;;;31.23;24.38;;;;;;;;;;4957325;29;20031;-47
2023/10/27 08:04:10;;;;;;;32.13;23.67;;;;;;;;;;4957182;29;20031;-51
2023/10/27 08:06:36;;;;;;;29.17;22.88;;;;;;;;;;4957014;29;20505;-50
2023/10/27 08:09:02;;;;;;;27.90;22.98;;;;;;;;;;4957312;29;20385;-49
2023/10/27 08:11:28;;;;;;;29.07;22.73;;;;;;;;;;4957276;29;20036;-48
2023/10/27 08:13:54;;;;;;;27.63;22.33;;;;;;;;;;4957039;29;20118;-51
2023/10/27 08:16:21;;;;;;;24.73;20.60;;;;;;;;;;4957079;29;20131;-48
2023/10/27 08:18:47;;;;;;;28.05;22.80;;;;;;;;;;4957180;29;20093;-49
2023/10/27 08:21:13;;;;;;;30.73;20.83;;;;;;;;;;4957051;29;20079;-48
2023/10/27 08:23:39;;;;;;;26.53;20.60;;;;;;;;;;4939799;29;20062;-48
2023/10/27 08:26:05;;;;;;;27.60;21.20;;;;;;;;;;4939496;29;20067;-49
2023/10/27 08:28:31;;;;;;;25.10;20.95;;;;;;;;;;4956737;29;20051;-47
2023/10/27 08:30:58;;;;;;;25.00;19.63;;;;;;;;;;4939758;29;20477;-53
2023/10/27 08:33:25;;;;;;;30.73;20.87;;;;;;;;;;4956827;29;20038;-51
2023/10/27 08:35:51;;;;;;;23.13;17.75;;;;;;;;;;4956527;29;20074;-51
2023/10/27 08:38:17;;;;;;;24.40;18.75;;;;;;;;;;4956836;29;20027;-52
2023/10/27 08:40:44;;;;;;;20.33;16.80;;;;;;;;;;4956689;29;20035;-50
2023/10/27 08:43:12;;;;;;;24.17;17.75;;;;;;;;;;4939358;29;20035;-49
2023/10/27 08:45:39;;;;;;;21.52;17.77;;;;;;;;;;4956714;29;20399;-51
2023/10/27 08:48:05;;;;;;;18.75;15.30;;;;;;;;;;4956206;29;20039;-50
2023/10/27 08:50:32;;;;;;;21.10;15.02;;;;;;;;;;4954839;29;20046;-49
2023/10/27 08:52:59;;;;;;;18.08;14.32;;;;;;;;;;4956107;29;20122;-52
2023/10/27 08:55:25;;;;;;;15.73;13.50;;;;;;;;;;4956786;29;20107;-51
2023/10/27 08:57:54;;;;;;;15.10;13.18;;;;;;;;;;4956233;29;20046;-52
2023/10/27 09:00:21;;;;;;;15.20;12.50;;;;;;;;;;4956209;29;20035;-53
2023/10/27 09:02:47;;;;;;;14.65;12.00;;;;;;;;;;4955828;28;20053;-51
2023/10/27 09:05:14;;;;;;;13.88;11.82;;;;;;;;;;4938959;29;20417;-51
2023/10/27 09:07:40;;;;;;;13.20;11.05;;;;;;;;;;4956056;29;20043;-51
2023/10/27 09:10:07;;;;;;;14.33;11.67;;;;;;;;;;4939073;29;20501;-48
2023/10/27 09:12:37;;;;;;;11.70;10.45;;;;;;;;;;4955946;29;20066;-51
2023/10/27 09:15:07;;;;;;;13.98;11.10;;;;;;;;;;4956039;29;20031;-50
2023/10/27 09:17:53;;;;;;;12.85;10.02;;;;;;;;;;4955870;29;20058;-51
2023/10/27 09:20:23;;;;;;;15.80;10.20;;;;;;;;;;4956117;29;20545;-51
2023/10/27 09:22:56;;;;;;;12.35;9.98;;;;;;;;;;4956155;29;20019;-49
2023/10/27 09:25:28;;;;;;;14.15;11.80;;;;;;;;;;4938524;29;20027;-52
2023/10/27 09:27:55;;;;;;;16.05;11.52;;;;;;;;;;4955514;29;20398;-49
2023/10/27 09:30:28;;;;;;;13.40;10.95;;;;;;;;;;4938575;29;20035;-50
2023/10/27 09:32:55;;;;;;;13.63;12.18;;;;;;;;;;4955899;29;20078;-48
2023/10/27 09:35:22;;;;;;;12.07;10.77;;;;;;;;;;4955581;29;20094;-52
2023/10/27 09:37:54;;;;;;;12.63;10.30;;;;;;;;;;4955474;29;20032;-48
2023/10/27 09:40:20;;;;;;;14.25;10.23;;;;;;;;;;4955726;29;20027;-50
2023/10/27 09:42:49;;;;;;;12.15;10.07;;;;;;;;;;4955393;29;20019;-48
2023/10/27 09:45:15;;;;;;;11.77;10.57;;;;;;;;;;4938437;29;20031;-50
2023/10/27 09:47:47;;;;;;;13.20;9.77;;;;;;;;;;4955442;29;20153;-53
2023/10/27 09:50:19;;;;;;;11.35;9.45;;;;;;;;;;4955503;29;20038;-51
2023/10/27 09:52:45;;;;;;;9.32;8.32;;;;;;;;;;4955413;29;20142;-50
2023/10/27 09:55:16;;;;;;;9.60;8.63;;;;;;;;;;4955300;29;20046;-50
2023/10/27 09:57:46;;;;;;;12.48;8.73;;;;;;;;;;4955103;29;20062;-49
2023/10/27 10:00:14;;;;;;;12.93;9.48;;;;;;;;;;4938032;29;20035;-50
2023/10/27 10:02:44;;;;;;;13.70;9.65;;;;;;;;;;4955232;29;20034;-54
2023/10/27 10:05:11;;;;;;;11.23;9.63;;;;;;;;;;4955044;29;20027;-51
2023/10/27 10:07:41;;;;;;;11.57;10.10;;;;;;;;;;4969529;28;20115;-50
2023/10/27 10:10:21;;;;;;;9.60;7.80;;;;;;;;;;4955088;29;20035;-51
2023/10/27 10:13:00;;;;;;;8.70;6.88;;;;;;;;;;4954814;29;20110;-48
2023/10/27 10:15:47;;;;;;;8.23;7.40;;;;;;;;;;4954047;28;20027;-48
2023/10/27 10:18:22;;;;;;;8.18;7.18;;;;;;;;;;4950994;29;20498;-50
2023/10/27 10:20:48;;;;;;;9.75;7.85;;;;;;;;;;4937903;29;20147;-48
2023/10/27 10:23:15;;;;;;;8.70;7.80;;;;;;;;;;4935715;29;20031;-49
2023/10/27 10:25:51;;;;;;;11.85;7.13;;;;;;;;;;4929083;29;20035;-48
2023/10/27 10:28:17;;;;;;;9.10;6.90;;;;;;;;;;4935405;29;20067;-48
2023/10/27 10:30:44;;;;;;;9.48;7.53;;;;;;;;;;4938129;29;20024;-48
2023/10/27 10:33:26;;;;;;;9.23;8.00;;;;;;;;;;4936253;29;20028;-51
2023/10/27 10:35:53;;;;;;;9.05;8.05;;;;;;;;;;4935064;29;20043;-51
2023/10/27 10:38:22;;;;;;;12.25;6.75;;;;;;;;;;4918338;29;20043;-49
2023/10/27 10:40:52;;;;;;;8.20;7.20;;;;;;;;;;4916721;29;20461;-48
2023/10/27 10:43:20;;;;;;;12.18;7.43;;;;;;;;;;4916789;29;20036;-50
2023/10/27 10:45:53;;;;;;;8.68;7.72;;;;;;;;;;4960651;23;20118;-47
2023/10/27 10:48:21;;;;;;;8.10;7.30;;;;;;;;;;4966670;28;20066;-52
2023/10/27 10:50:49;;;;;;;7.90;6.38;;;;;;;;;;4943979;28;20019;-56
2023/10/27 10:53:16;;;;;;;9.63;7.03;;;;;;;;;;4940255;28;20405;-49
2023/10/27 10:55:42;;;;;;;;;;;;;;;;;;4971851;28;20543;-48
2023/10/27 10:58:08;;;;;;;7.50;6.75;;;;;;;;;;4971715;28;20390;-51
2023/10/27 11:00:35;;;;;;;6.87;5.73;;;;;;;;;;4957641;28;20035;-50
2023/10/27 11:03:12;;;;;;;6.10;5.15;;;;;;;;;;4952720;29;20732;-48
2023/10/27 11:05:38;;;;;;;7.57;4.47;;;;;;;;;;4952398;28;20058;-53
2023/10/27 11:08:04;;;;;;;5.67;5.17;;;;;;;;;;4951631;29;20150;-49
2023/10/27 11:10:32;;;;;;;6.40;5.53;;;;;;;;;;4919059;29;20041;-49
2023/10/27 11:13:03;;;;;;;8.45;5.03;;;;;;;;;;4959514;28;20042;-50
2023/10/27 11:15:48;;;;;;;6.07;5.47;;;;;;;;;;4951446;29;20031;-51
2023/10/27 11:18:15;;;;;;;215.95;159.32;;;;;;;;;;4952001;28;20027;-49
2023/10/27 11:20:45;;;;;;;4.78;4.03;;;;;;;;;;4953517;28;20484;-48
2023/10/27 11:23:11;;;;;;;4.13;3.72;;;;;;;;;;4951188;29;20414;-49
2023/10/27 11:25:37;;;;;;;4.07;3.20;;;;;;;;;;4951561;28;20039;-49
2023/10/27 11:28:27;;;;;;;5.35;3.55;;;;;;;;;;4951546;29;20674;-49
2023/10/27 11:31:12;;;;;;;3.40;3.00;;;;;;;;;;4938449;28;20137;-52
2023/10/27 11:33:57;;;;;;;2.80;2.38;;;;;;;;;;4932936;29;20035;-49
2023/10/27 11:36:24;;;;;;;3.30;2.60;;;;;;;;;;4948232;29;20031;-48
2023/10/27 11:38:51;;;;;;;;;;;;;;;;;;4958602;28;20524;-47
2023/10/27 11:41:17;;;;;;;3.90;2.88;;;;;;;;;;4951913;28;19921;-48
2023/10/27 11:43:44;;;;;;;3.33;2.25;;;;;;;;;;4951881;28;20043;-49
2023/10/27 11:46:14;;;;;;;4.13;2.33;;;;;;;;;;4951404;29;20521;-50
2023/10/27 11:48:41;;;;;;;3.15;2.83;;;;;;;;;;4952040;29;20038;-48
2023/10/27 11:51:07;;;;;;;4.63;3.05;;;;;;;;;;4949616;29;20475;-49
2023/10/27 11:53:34;;;;;;;3.30;3.00;;;;;;;;;;4949958;28;20379;-50
2023/10/27 11:56:02;;;;;;;5.72;3.03;;;;;;;;;;4951385;29;20035;-49
2023/10/27 11:58:28;;;;;;;2.97;2.30;;;;;;;;;;4951847;29;20494;-51
2023/10/27 12:00:54;;;;;;;3.27;2.10;;;;;;;;;;4940584;29;20031;-48
2023/10/27 12:03:21;;;;;;;2.07;1.87;;;;;;;;;;4951751;29;20027;-49
2023/10/27 12:05:47;;;;;;;2.25;2.05;;;;;;;;;;4950382;29;20282;-50
2023/10/27 12:08:13;;;;;;;4.68;2.28;;;;;;;;;;4951618;29;20131;-51
2023/10/27 12:10:39;;;;;;;4.22;1.90;;;;;;;;;;4936862;29;20110;-50
2023/10/27 12:13:08;;;;;;;2.85;1.80;;;;;;;;;;4937178;29;20027;-51
2023/10/27 12:15:34;;;;;;;2.45;1.40;;;;;;;;;;4951800;29;20024;-50
2023/10/27 12:18:03;;;;;;;1.90;1.05;;;;;;;;;;4951481;29;20528;-48
2023/10/27 12:20:32;;;;;;;1.45;1.10;;;;;;;;;;4951508;29;20426;-50
2023/10/27 12:22:58;;;;;;;2.03;1.08;;;;;;;;;;4951474;29;20573;-50
2023/10/27 12:25:25;;;;;;;2.22;0.98;;;;;;;;;;4951622;29;20064;-49
2023/10/27 12:27:51;;;;;;;0.45;0.45;;;;;;;;;;4951390;29;20513;-50
2023/10/27 12:30:17;;;;;;;1.08;0.40;;;;;;;;;;4951160;28;20035;-49
2023/10/27 12:32:44;;;;;;;0.70;0.57;;;;;;;;;;4935632;29;20075;-48
2023/10/27 12:35:11;;;;;;;0.50;0.50;;;;;;;;;;4951732;28;20028;-46
2023/10/27 12:37:37;;;;;;;0.73;0.40;;;;;;;;;;4951224;28;20033;-49
2023/10/27 12:40:07;;;;;;;2.60;0.50;;;;;;;;;;4954975;28;20039;-50
2023/10/27 12:42:33;;;;;;;12.32;10.88;;;;;;;;;;4955035;29;20031;-60
2023/10/27 12:44:59;;;;;;;4.80;4.38;;;;;;;;;;4955205;29;20082;-58
2023/10/27 12:47:25;;;;;;;0.93;0.47;;;;;;;;;;4954303;29;20047;-50
2023/10/27 12:49:52;;;;;;;1.05;0.32;;;;;;;;;;4942250;29;20035;-48
2023/10/27 12:52:18;;;;;;;0.75;0.70;;;;;;;;;;4954862;29;20039;-51
2023/10/27 12:54:44;;;;;;;0.40;0.30;;;;;;;;;;4953281;28;20031;-50
2023/10/27 12:57:10;;;;;;;0.60;0.40;;;;;;;;;;4954355;28;20416;-49
2023/10/27 12:59:37;;;;;;;0.40;0.40;;;;;;;;;;4954537;29;20031;-53
2023/10/27 13:02:03;;;;;;;3.30;0.50;;;;;;;;;;4964988;28;20043;-52
2023/10/27 13:04:30;;;;;;;2.72;0.50;;;;;;;;;;4954687;28;20043;-51
2023/10/27 13:06:57;;;;;;;1.23;0.57;;;;;;;;;;4935288;29;20101;-49
2023/10/27 13:09:23;;;;;;;1.23;0.60;;;;;;;;;;4956032;29;20418;-47
2023/10/27 13:11:49;;;;;;;0.47;0.47;;;;;;;;;;4954710;29;20114;-49
2023/10/27 13:14:15;;;;;;;0.77;0.50;;;;;;;;;;4956129;29;20027;-48
2023/10/27 13:16:41;;;;;;;1.35;0.85;;;;;;;;;;4955617;29;20469;-50
2023/10/27 13:19:08;;;;;;;1.65;0.40;;;;;;;;;;4938696;29;20039;-49
2023/10/27 13:21:37;;;;;;;1.75;0.30;;;;;;;;;;4938847;29;20047;-48
2023/10/27 13:24:04;;;;;;;0.88;0.68;;;;;;;;;;4955652;29;20097;-48
2023/10/27 13:26:30;;;;;;;;;;;;;;;;;;4956078;29;20027;-50
2023/10/27 13:28:57;;;;;;;0.60;0.45;;;;;;;;;;4955934;29;19914;-51
2023/10/27 13:31:23;;;;;;;1.08;0.40;;;;;;;;;;4938539;29;20525;-49
2023/10/27 13:33:50;;;;;;;1.60;0.47;;;;;;;;;;4955912;29;20449;-49
2023/10/27 13:36:17;;;;;;;;;;;;;;;;;;4955989;29;20031;-49
2023/10/27 13:38:43;;;;;;;0.30;0.30;;;;;;;;;;4955852;29;19918;-48
2023/10/27 13:41:09;;;;;;;;;;;;;;;;;;4956287;29;20269;-49
2023/10/27 13:43:36;;;;;;;0.38;0.30;;;;;;;;;;4955721;29;19910;-45
2023/10/27 13:46:02;;;;;;;0.43;0.32;;;;;;;;;;4955308;29;20043;-46
2023/10/27 13:48:29;;;;;;;0.65;0.55;;;;;;;;;;4958023;28;20038;-49
2023/10/27 13:50:55;;;;;;;0.75;0.60;;;;;;;;;;4955063;28;20383;-48
2023/10/27 13:53:21;;;;;;;2.78;0.50;;;;;;;;;;4955624;28;20034;-50
2023/10/27 13:55:48;;;;;;;0.68;0.30;;;;;;;;;;4954691;28;20082;-49
2023/10/27 13:58:14;;;;;;;0.68;0.43;;;;;;;;;;4955175;29;20142;-48
2023/10/27 14:00:41;;;;;;;2.10;0.55;;;;;;;;;;4955393;28;20042;-50
2023/10/27 14:03:08;;;;;;;0.40;0.40;;;;;;;;;;4955136;28;20042;-48
2023/10/27 14:05:35;;;;;;;0.88;0.40;;;;;;;;;;4955240;29;20062;-50
2023/10/27 14:08:01;;;;;;;;;;;;;;;;;;4953947;29;20063;-49
2023/10/27 14:10:27;;;;;;;0.32;0.30;;;;;;;;;;4954117;29;19911;-48
2023/10/27 14:12:53;;;;;;;1.13;0.68;;;;;;;;;;4953823;29;20042;-51
2023/10/27 14:15:20;;;;;;;9.10;1.45;;;;;;;;;;4954036;29;20037;-49
2023/10/27 14:17:46;;;;;;;4.63;0.40;;;;;;;;;;4953408;29;20038;-49
2023/10/27 14:20:12;;;;;;;0.82;0.50;;;;;;;;;;4953669;29;20035;-49
2023/10/27 14:22:39;;;;;;;1.75;0.40;;;;;;;;;;4953568;29;20122;-49
2023/10/27 14:25:05;;;;;;;1.63;0.55;;;;;;;;;;4954826;29;20035;-47
2023/10/27 14:27:32;;;;;;;0.55;0.40;;;;;;;;;;4954578;29;20055;-47
2023/10/27 14:29:58;;;;;;;4.80;0.40;;;;;;;;;;4954751;29;20034;-48